Time;durP1;ratioP1;P1;durP2;ratioP2;P2;SDS_P1;SDS_P2;PMS_P1;PMS_P2;Temp;Humidity;BMP_temperature;BMP_pressure;BME280_temperature;BME280_humidity;BME280_pressure;Samples;Min_cycle;Max_cycle;Signal;HPM_P1;HPM_P2
2022/11/26 00:01:41;;;;;;;1.10;1.10;;;;;;;7.61;96.18;96283.41;4365032;32;20275;-59
2022/11/26 00:04:07;;;;;;;0.87;0.87;;;;;;;7.57;96.79;96286.53;4366574;32;20292;-58
2022/11/26 00:06:41;;;;;;;1.50;1.40;;;;;;;7.46;97.29;96290.13;4373447;32;20303;-59
2022/11/26 00:09:13;;;;;;;1.10;1.10;;;;;;;7.46;97.41;96291.97;4371280;32;20193;-60
2022/11/26 00:11:39;;;;;;;3.07;1.80;;;;;;;7.39;97.68;96297.44;4395275;32;20280;-58
2022/11/26 00:14:12;;;;;;;1.13;1.13;;;;;;;7.43;97.50;96290.63;4373654;32;20347;-59
2022/11/26 00:16:37;;;;;;;0.90;0.90;;;;;;;7.46;97.63;96297.25;4378497;32;20259;-59
2022/11/26 00:19:03;;;;;;;0.80;0.80;;;;;;;7.57;96.74;96286.53;4374879;32;20316;-59
2022/11/26 00:21:36;;;;;;;0.80;0.80;;;;;;;7.64;96.85;96288.19;4373674;32;20224;-59
2022/11/26 00:24:02;;;;;;;0.70;0.70;;;;;;;7.57;96.62;96286.53;4366206;32;20185;-59
2022/11/26 00:26:27;;;;;;;0.80;0.80;;;;;;;7.59;96.72;96288.94;4368921;32;20277;-59
2022/11/26 00:28:55;;;;;;;0.87;0.53;;;;;;;7.61;96.39;96288.69;4382724;32;20378;-59
2022/11/26 00:31:22;;;;;;;1.60;0.93;;;;;;;7.52;96.25;96285.69;4381866;32;20195;-58
2022/11/26 00:33:47;;;;;;;0.60;0.60;;;;;;;7.56;96.54;96298.16;4387734;32;20303;-63
2022/11/26 00:36:25;;;;;;;0.53;0.53;;;;;;;7.48;96.72;96295.16;4374686;32;20301;-59
2022/11/26 00:38:59;;;;;;;0.93;0.93;;;;;;;7.54;96.49;96297.59;4382095;32;20192;-60
2022/11/26 00:41:29;;;;;;;1.93;1.37;;;;;;;7.54;96.44;96294.94;4384841;32;20280;-59
2022/11/26 00:43:54;;;;;;;0.57;0.57;;;;;;;7.68;96.01;96305.94;4374107;32;20307;-59
2022/11/26 00:46:21;;;;;;;0.67;0.67;;;;;;;7.79;95.27;96312.09;4369997;32;20364;-59
2022/11/26 00:48:46;;;;;;;1.17;0.63;;;;;;;7.75;94.98;96306.50;4372430;32;20239;-59
2022/11/26 00:51:18;;;;;;;0.87;0.87;;;;;;;7.72;95.04;96312.28;4372283;32;20299;-59
2022/11/26 00:53:46;;;;;;;0.87;0.87;;;;;;;7.76;95.04;96318.66;4373616;32;20263;-59
2022/11/26 00:56:21;;;;;;;0.60;0.60;;;;;;;7.72;95.02;96311.47;4377768;32;20300;-58
2022/11/26 00:58:48;;;;;;;1.50;1.00;;;;;;;7.61;95.50;96321.16;4375247;32;20288;-59
2022/11/26 01:01:19;;;;;;;0.87;0.87;;;;;;;7.47;96.06;96323.41;4375973;32;20310;-59
2022/11/26 01:03:44;;;;;;;1.07;0.97;;;;;;;7.56;95.61;96324.53;4365070;32;20292;-59
2022/11/26 01:06:16;;;;;;;4.63;1.60;;;;;;;7.59;95.71;96326.69;4363811;32;20353;-59
2022/11/26 01:08:42;;;;;;;27.17;1.97;;;;;;;7.49;95.66;96326.56;4379896;32;20330;-59
2022/11/26 01:11:13;;;;;;;1.30;1.20;;;;;;;7.48;95.62;96330.25;4384016;32;20395;-59
2022/11/26 01:13:39;;;;;;;5.93;1.47;;;;;;;7.47;96.10;96335.81;4375521;32;20176;-59
2022/11/26 01:16:21;;;;;;;1.20;1.20;;;;;;;7.67;94.97;96338.66;4373849;32;20276;-59
2022/11/26 01:18:48;;;;;;;0.60;0.60;;;;;;;7.61;95.34;96347.56;4369416;32;20181;-58
2022/11/26 01:21:13;;;;;;;0.50;0.50;;;;;;;7.48;95.44;96351.38;4385950;32;20304;-59
2022/11/26 01:23:39;;;;;;;0.70;0.70;;;;;;;7.42;96.04;96349.75;4383952;32;20291;-59
2022/11/26 01:26:04;;;;;;;0.60;0.60;;;;;;;7.54;95.12;96349.59;4386642;32;20189;-58
2022/11/26 01:28:30;;;;;;;1.07;1.07;;;;;;;7.59;94.82;96347.81;4384274;32;20220;-58
2022/11/26 01:30:55;;;;;;;0.70;0.70;;;;;;;7.41;95.11;96347.34;4378756;32;20249;-57
2022/11/26 01:33:20;;;;;;;0.63;0.63;;;;;;;7.55;95.07;96348.56;4384481;32;20266;-58
2022/11/26 01:35:46;;;;;;;0.63;0.63;;;;;;;7.37;95.13;96352.31;4402931;32;20189;-58
2022/11/26 01:38:13;;;;;;;1.07;0.97;;;;;;;7.27;95.60;96354.88;4382073;32;20188;-58
2022/11/26 01:40:56;;;;;;;1.47;0.90;;;;;;;7.28;95.64;96351.16;4382263;32;20272;-58
2022/11/26 01:43:26;;;;;;;0.77;0.40;;;;;;;7.26;95.58;96352.47;4377196;32;20290;-58
2022/11/26 01:45:53;;;;;;;0.57;0.57;;;;;;;7.42;95.27;96359.50;4382077;32;20329;-58
2022/11/26 01:48:26;;;;;;;0.60;0.60;;;;;;;7.41;95.00;96356.06;4373862;32;20276;-58
2022/11/26 01:50:56;;;;;;;0.63;0.63;;;;;;;7.34;95.31;96362.56;4379053;32;20351;-58
2022/11/26 01:53:31;;;;;;;0.83;0.83;;;;;;;7.32;95.27;96367.31;4387926;32;20277;-57
2022/11/26 01:56:26;;;;;;;0.60;0.60;;;;;;;7.29;95.70;96368.59;4379267;32;20306;-57
2022/11/26 01:59:25;;;;;;;0.50;0.50;;;;;;;7.27;95.41;96375.97;4374978;32;20349;-57
2022/11/26 02:01:52;;;;;;;0.40;0.40;;;;;;;7.24;95.71;96379.09;4369442;32;20290;-58
2022/11/26 02:04:26;;;;;;;0.47;0.47;;;;;;;7.35;95.46;96380.81;4376680;32;20311;-59
2022/11/26 02:06:53;;;;;;;0.67;0.50;;;;;;;7.27;95.58;96381.25;4377232;32;20280;-58
2022/11/26 02:09:19;;;;;;;0.67;0.67;;;;;;;7.35;95.83;96372.09;4374551;32;20316;-58
2022/11/26 02:11:45;;;;;;;1.17;0.93;;;;;;;7.44;95.21;96386.47;4373940;32;20378;-58
2022/11/26 02:14:16;;;;;;;0.30;0.30;;;;;;;7.37;95.40;96377.91;4377356;32;20189;-58
2022/11/26 02:16:48;;;;;;;1.70;1.63;;;;;;;7.15;95.69;96370.81;4373876;32;20276;-58
2022/11/26 02:19:32;;;;;;;2.07;1.03;;;;;;;7.30;95.54;96388.66;4384403;32;20338;-58
2022/11/26 02:22:19;;;;;;;0.40;0.40;;;;;;;7.22;95.44;96381.19;4369265;32;20280;-58
2022/11/26 02:25:03;;;;;;;0.30;0.30;;;;;;;7.30;95.27;96388.66;4374822;32;20273;-58
2022/11/26 02:27:57;;;;;;;0.73;0.73;;;;;;;7.27;95.28;96383.91;4378233;32;20312;-58
2022/11/26 02:30:23;;;;;;;0.60;0.53;;;;;;;7.35;94.49;96385.28;4366978;32;20357;-58
2022/11/26 02:32:59;;;;;;;0.70;0.70;;;;;;;7.22;94.77;96387.25;4379853;32;20382;-59
2022/11/26 02:35:42;;;;;;;0.37;0.37;;;;;;;7.30;94.64;96388.66;4379029;32;20193;-58
2022/11/26 02:38:16;;;;;;;2.80;0.73;;;;;;;7.47;94.12;96389.41;4383528;32;20350;-59
2022/11/26 02:40:42;;;;;;;0.70;0.70;;;;;;;7.57;93.40;96394.78;4371936;32;20288;-58
2022/11/26 02:43:07;;;;;;;0.73;0.73;;;;;;;7.28;94.04;96395.22;4382578;32;20396;-58
2022/11/26 02:45:49;;;;;;;0.33;0.33;;;;;;;7.35;93.88;96388.72;4384862;32;20192;-58
2022/11/26 02:48:22;;;;;;;1.53;0.80;;;;;;;7.37;93.45;96391.91;4381197;32;20208;-58
2022/11/26 02:50:53;;;;;;;0.43;0.43;;;;;;;7.36;93.70;96390.31;4379135;32;20366;-58
2022/11/26 02:53:21;;;;;;;0.60;0.60;;;;;;;7.40;93.43;96391.44;4376221;32;20353;-58
2022/11/26 02:55:53;;;;;;;0.50;0.50;;;;;;;7.45;93.60;96394.13;4371795;32;20281;-58
2022/11/26 02:58:19;;;;;;;0.83;0.73;;;;;;;7.28;94.34;96389.94;4365979;32;20312;-60
2022/11/26 03:00:47;;;;;;;1.43;0.77;;;;;;;7.26;93.80;96387.56;4389235;32;20327;-58
2022/11/26 03:03:22;;;;;;;0.80;0.77;;;;;;;7.24;94.11;96393.09;4376303;32;20294;-58
2022/11/26 03:05:57;;;;;;;0.67;0.67;;;;;;;7.21;94.08;96396.22;4380195;32;20284;-62
2022/11/26 03:08:25;;;;;;;0.23;0.23;;;;;;;7.24;94.28;96401.00;4381754;32;20298;-58
2022/11/26 03:10:50;;;;;;;2.43;1.20;;;;;;;7.16;93.99;96403.25;4372933;32;20347;-58
2022/11/26 03:13:16;;;;;;;0.53;0.53;;;;;;;7.23;93.95;96409.16;4375831;32;20276;-58
2022/11/26 03:15:41;;;;;;;0.47;0.47;;;;;;;7.23;93.91;96412.63;4371731;32;20204;-59
2022/11/26 03:18:07;;;;;;;0.20;0.20;;;;;;;7.30;94.09;96407.12;4369835;32;20180;-58
2022/11/26 03:20:32;;;;;;;0.50;0.50;;;;;;;7.31;94.15;96411.37;4376650;32;20192;-58
2022/11/26 03:22:57;;;;;;;0.67;0.67;;;;;;;7.37;94.45;96412.25;4380573;32;20195;-58
2022/11/26 03:25:23;;;;;;;0.47;0.47;;;;;;;7.22;94.22;96407.56;4388376;32;20177;-58
2022/11/26 03:27:48;;;;;;;1.27;1.27;;;;;;;7.12;94.74;96407.44;4370065;32;20258;-58
2022/11/26 03:30:13;;;;;;;0.50;0.50;;;;;;;7.18;94.68;96415.19;4380931;32;20196;-58
2022/11/26 03:32:39;;;;;;;0.63;0.63;;;;;;;7.34;94.41;96410.09;4379028;32;20192;-58
2022/11/26 03:35:04;;;;;;;0.70;0.70;;;;;;;7.40;94.09;96407.28;4392594;32;20184;-58
2022/11/26 03:37:30;;;;;;;0.63;0.63;;;;;;;7.27;94.30;96405.00;4381850;32;20259;-58
2022/11/26 03:39:55;;;;;;;3.60;1.53;;;;;;;7.30;94.47;96404.50;4373593;32;20208;-58
2022/11/26 03:42:21;;;;;;;0.90;0.90;;;;;;;7.33;94.11;96403.22;4363376;32;20177;-58
2022/11/26 03:44:46;;;;;;;1.23;1.00;;;;;;;7.18;94.81;96412.53;4364290;32;20215;-58
2022/11/26 03:47:11;;;;;;;1.00;0.83;;;;;;;7.20;95.18;96409.66;4365910;32;20199;-58
2022/11/26 03:49:36;;;;;;;0.37;0.37;;;;;;;7.17;95.05;96408.31;4366521;32;20180;-58
2022/11/26 03:52:02;;;;;;;4.10;1.00;;;;;;;7.07;95.52;96410.78;4379899;32;20203;-58
2022/11/26 03:54:28;;;;;;;0.80;0.80;;;;;;;7.17;95.42;96413.56;4378205;32;20227;-58
2022/11/26 03:56:53;;;;;;;2.23;1.20;;;;;;;7.34;95.08;96421.44;4377404;32;20184;-58
2022/11/26 03:59:18;;;;;;;0.90;0.90;;;;;;;7.39;94.86;96424.16;4377722;32;20258;-62
2022/11/26 04:01:44;;;;;;;1.60;1.50;;;;;;;7.48;94.23;96425.31;4368450;32;20192;-58
2022/11/26 04:04:09;;;;;;;1.73;1.30;;;;;;;7.41;94.29;96431.81;4375124;32;20291;-58
2022/11/26 04:06:35;;;;;;;0.97;0.97;;;;;;;7.23;94.88;96435.56;4374277;32;20185;-57
2022/11/26 04:09:00;;;;;;;0.60;0.60;;;;;;;7.32;94.97;96444.63;4380323;32;20216;-57
2022/11/26 04:11:25;;;;;;;1.90;1.77;;;;;;;7.37;94.76;96450.00;4374499;32;20208;-57
2022/11/26 04:13:51;;;;;;;1.50;1.13;;;;;;;7.40;94.56;96448.69;4368634;32;20189;-57
2022/11/26 04:16:16;;;;;;;0.90;0.90;;;;;;;7.46;94.29;96456.44;4383010;32;20192;-57
2022/11/26 04:18:42;;;;;;;0.80;0.80;;;;;;;7.40;94.23;96454.78;4375998;32;20203;-57
2022/11/26 04:21:07;;;;;;;0.70;0.70;;;;;;;7.50;94.10;96448.81;4385191;32;20211;-57
2022/11/26 04:23:33;;;;;;;0.53;0.53;;;;;;;7.36;94.64;96456.31;4372624;32;20200;-57
2022/11/26 04:25:59;;;;;;;1.37;0.70;;;;;;;7.43;94.77;96466.69;4372399;32;20228;-57
2022/11/26 04:28:24;;;;;;;0.50;0.50;;;;;;;7.43;94.80;96466.69;4374130;32;20200;-57
2022/11/26 04:30:49;;;;;;;0.80;0.80;;;;;;;7.28;95.13;96469.12;4388055;32;20265;-57
2022/11/26 04:33:15;;;;;;;1.00;1.00;;;;;;;7.31;95.50;96482.63;4390182;32;20192;-58
2022/11/26 04:35:41;;;;;;;1.43;1.00;;;;;;;7.25;95.45;96473.06;4395916;32;20192;-57
2022/11/26 04:38:06;;;;;;;7.37;1.20;;;;;;;7.32;95.34;96476.31;4388554;32;20240;-58
2022/11/26 04:40:32;;;;;;;1.33;1.10;;;;;;;7.20;95.57;96475.62;4382929;32;20345;-57
2022/11/26 04:42:57;;;;;;;1.00;1.00;;;;;;;7.16;96.26;96482.44;4377337;32;20193;-57
2022/11/26 04:45:22;;;;;;;0.63;0.63;;;;;;;7.16;96.32;96490.34;4367290;32;20246;-57
2022/11/26 04:47:48;;;;;;;0.90;0.90;;;;;;;7.27;95.89;96488.66;4368059;32;20250;-58
2022/11/26 04:50:13;;;;;;;0.40;0.40;;;;;;;7.20;95.71;96491.47;4378021;32;20195;-58
2022/11/26 04:52:38;;;;;;;1.27;1.13;;;;;;;7.16;95.98;96498.25;4380700;32;20260;-57
2022/11/26 04:55:04;;;;;;;3.27;1.33;;;;;;;7.09;96.12;96503.69;4383815;32;20216;-57
2022/11/26 04:57:29;;;;;;;1.20;1.07;;;;;;;7.15;96.31;96499.28;4367427;32;20247;-58
2022/11/26 04:59:55;;;;;;;0.43;0.43;;;;;;;7.10;96.47;96510.56;4376241;32;20203;-57
2022/11/26 05:02:20;;;;;;;1.33;1.23;;;;;;;7.21;95.85;96509.69;4385512;32;20238;-58
2022/11/26 05:04:45;;;;;;;5.60;1.17;;;;;;;7.31;95.36;96506.38;4378755;32;20184;-57
2022/11/26 05:07:11;;;;;;;1.13;0.97;;;;;;;7.36;95.64;96509.09;4376322;32;20203;-57
2022/11/26 05:09:36;;;;;;;0.57;0.57;;;;;;;7.18;95.72;96517.28;4363705;32;20180;-57
2022/11/26 05:12:01;;;;;;;0.67;0.67;;;;;;;7.19;95.92;96513.59;4378711;32;20188;-57
2022/11/26 05:14:27;;;;;;;1.53;1.43;;;;;;;7.16;96.14;96524.66;4386713;32;20211;-57
2022/11/26 05:16:52;;;;;;;0.87;0.87;;;;;;;7.22;95.95;96523.69;4381486;32;20193;-57
2022/11/26 05:19:17;;;;;;;0.87;0.87;;;;;;;7.21;96.09;96530.00;4383570;32;20184;-57
2022/11/26 05:21:43;;;;;;;1.03;0.53;;;;;;;7.25;95.61;96531.13;4376545;32;20188;-57
2022/11/26 05:24:08;;;;;;;0.83;0.67;;;;;;;7.38;95.62;96528.13;4381301;32;20185;-57
2022/11/26 05:26:33;;;;;;;7.70;0.80;;;;;;;7.28;95.52;96533.25;4375420;32;20236;-57
2022/11/26 05:28:59;;;;;;;0.97;0.80;;;;;;;7.34;95.29;96534.13;4385017;32;20220;-58
2022/11/26 05:31:24;;;;;;;1.90;1.47;;;;;;;7.33;95.17;96535.97;4366682;32;20181;-57
2022/11/26 05:33:50;;;;;;;0.80;0.80;;;;;;;7.20;95.58;96541.59;4383630;32;20185;-58
2022/11/26 05:36:15;;;;;;;2.10;0.63;;;;;;;7.27;95.66;96541.44;4382120;32;20216;-58
2022/11/26 05:38:40;;;;;;;0.57;0.57;;;;;;;7.30;95.45;96544.38;4378333;32;20204;-57
2022/11/26 05:41:06;;;;;;;0.63;0.63;;;;;;;7.43;94.77;96551.97;4380136;32;20192;-57
2022/11/26 05:43:31;;;;;;;1.13;1.13;;;;;;;7.26;95.13;96548.56;4373764;32;20202;-57
2022/11/26 05:46:03;;;;;;;0.87;0.87;;;;;;;7.31;95.11;96555.72;4390121;32;20189;-57
2022/11/26 05:48:28;;;;;;;1.37;1.37;;;;;;;7.15;96.23;96546.78;4369959;32;20203;-58
2022/11/26 05:50:58;;;;;;;0.87;0.87;;;;;;;7.07;96.48;96560.38;4371221;32;20288;-58
2022/11/26 05:53:24;;;;;;;0.80;0.80;;;;;;;6.89;96.95;96556.13;4374957;32;20204;-57
2022/11/26 05:55:49;;;;;;;0.70;0.70;;;;;;;6.96;97.39;96561.25;4365166;32;20319;-58
2022/11/26 05:58:15;;;;;;;0.43;0.43;;;;;;;6.95;97.07;96560.47;4381759;32;20207;-57
2022/11/26 06:00:40;;;;;;;0.93;0.87;;;;;;;7.09;96.70;96561.72;4369329;32;20188;-58
2022/11/26 06:03:05;;;;;;;0.80;0.80;;;;;;;7.18;96.47;96567.44;4375019;32;20232;-57
2022/11/26 06:05:30;;;;;;;0.70;0.70;;;;;;;7.27;95.80;96563.34;4379726;32;20200;-57
2022/11/26 06:07:56;;;;;;;0.70;0.70;;;;;;;7.37;95.38;96558.22;4373929;32;20196;-57
2022/11/26 06:10:21;;;;;;;1.07;1.07;;;;;;;7.24;95.37;96563.84;4380506;32;20197;-57
2022/11/26 06:12:46;;;;;;;1.40;0.73;;;;;;;7.11;95.38;96566.78;4383894;32;20200;-57
2022/11/26 06:15:12;;;;;;;0.67;0.67;;;;;;;7.14;95.52;96566.31;4391336;32;20233;-57
2022/11/26 06:17:37;;;;;;;0.90;0.90;;;;;;;7.26;95.25;96569.66;4387103;32;20184;-57
2022/11/26 06:20:03;;;;;;;0.63;0.63;;;;;;;7.20;95.45;96575.91;4384051;32;20247;-60
2022/11/26 06:22:29;;;;;;;0.40;0.40;;;;;;;7.25;95.02;96573.34;4378917;32;20234;-57
2022/11/26 06:24:54;;;;;;;0.37;0.37;;;;;;;7.34;95.13;96576.38;4378064;32;20434;-58
2022/11/26 06:27:19;;;;;;;1.27;0.93;;;;;;;7.45;94.27;96576.28;4371503;32;20204;-62
2022/11/26 06:29:45;;;;;;;0.70;0.70;;;;;;;7.36;94.21;96582.19;4367770;32;20188;-57
2022/11/26 06:32:10;;;;;;;0.77;0.77;;;;;;;7.38;94.00;96586.22;4384467;32;20215;-57
2022/11/26 06:34:35;;;;;;;0.83;0.83;;;;;;;7.35;94.30;96585.87;4378401;32;20184;-57
2022/11/26 06:37:01;;;;;;;1.40;1.40;;;;;;;7.27;94.34;96576.56;4385571;32;20259;-57
2022/11/26 06:39:26;;;;;;;0.83;0.80;;;;;;;7.24;94.88;96585.75;4375666;32;20196;-58
2022/11/26 06:41:51;;;;;;;0.47;0.47;;;;;;;7.14;94.91;96580.28;4370141;32;20267;-57
2022/11/26 06:44:17;;;;;;;1.30;1.30;;;;;;;7.08;95.51;96585.72;4369659;32;20208;-57
2022/11/26 06:46:42;;;;;;;3.17;1.80;;;;;;;7.20;95.44;96583.81;4371498;32;20226;-57
2022/11/26 06:49:08;;;;;;;0.63;0.63;;;;;;;7.15;95.65;96596.94;4381625;32;20197;-57
2022/11/26 06:51:34;;;;;;;2.27;0.80;;;;;;;7.13;95.86;96606.91;4385927;32;20279;-57
2022/11/26 06:54:00;;;;;;;1.00;0.93;;;;;;;7.19;95.81;96608.59;4395973;32;20324;-58
2022/11/26 06:56:25;;;;;;;1.70;1.23;;;;;;;7.21;95.68;96606.53;4379102;32;20215;-58
2022/11/26 06:58:53;;;;;;;1.83;1.30;;;;;;;7.23;95.60;96622.94;4381548;32;20303;-58
2022/11/26 07:01:22;;;;;;;1.00;0.97;;;;;;;7.24;95.36;96619.25;4379174;32;20208;-57
2022/11/26 07:03:48;;;;;;;0.70;0.70;;;;;;;7.18;95.52;96617.56;4380668;32;20306;-57
2022/11/26 07:06:24;;;;;;;0.50;0.50;;;;;;;7.20;95.49;96612.84;4381567;32;20281;-57
2022/11/26 07:08:51;;;;;;;0.87;0.87;;;;;;;7.03;95.91;96619.97;4384741;32;20211;-61
2022/11/26 07:11:17;;;;;;;2.87;1.20;;;;;;;7.10;95.98;96633.78;4382580;32;20326;-58
2022/11/26 07:13:43;;;;;;;1.60;0.80;;;;;;;6.93;96.17;96630.31;4365495;32;20281;-57
2022/11/26 07:16:08;;;;;;;0.40;0.40;;;;;;;6.99;95.98;96632.81;4377370;32;20346;-57
2022/11/26 07:18:34;;;;;;;2.27;1.10;;;;;;;6.98;96.06;96635.69;4382758;32;20188;-57
2022/11/26 07:21:05;;;;;;;0.50;0.50;;;;;;;6.89;96.01;96637.91;4372998;32;20277;-57
2022/11/26 07:23:31;;;;;;;0.40;0.40;;;;;;;6.88;95.68;96638.94;4378343;32;20192;-57
2022/11/26 07:26:00;;;;;;;1.53;1.43;;;;;;;7.00;95.64;96646.81;4374152;32;20295;-57
2022/11/26 07:28:27;;;;;;;0.77;0.77;;;;;;;6.95;96.09;96641.44;4362643;32;20245;-57
2022/11/26 07:30:52;;;;;;;0.40;0.40;;;;;;;6.92;95.81;96650.62;4380257;32;20272;-58
2022/11/26 07:33:17;;;;;;;0.50;0.50;;;;;;;6.93;96.28;96651.41;4365254;32;20297;-57
2022/11/26 07:35:43;;;;;;;0.47;0.47;;;;;;;7.09;95.56;96650.62;4367313;32;20188;-57
2022/11/26 07:38:08;;;;;;;0.47;0.47;;;;;;;7.06;95.32;96656.41;4376675;32;20223;-57
2022/11/26 07:40:33;;;;;;;0.40;0.37;;;;;;;7.10;94.96;96653.03;4368794;32;20193;-57
2022/11/26 07:42:59;;;;;;;0.20;0.20;;;;;;;7.04;94.95;96655.84;4381462;32;20192;-57
2022/11/26 07:45:24;;;;;;;3.30;0.80;;;;;;;6.93;96.00;96665.41;4372397;32;20199;-57
2022/11/26 07:47:49;;;;;;;0.40;0.40;;;;;;;7.18;95.00;96660.59;4370565;32;20236;-57
2022/11/26 07:50:15;;;;;;;0.77;0.77;;;;;;;7.05;95.49;96660.09;4382141;32;20279;-57
2022/11/26 07:52:40;;;;;;;4.63;0.90;;;;;;;7.12;95.16;96660.72;4365205;32;20272;-57
2022/11/26 07:55:06;;;;;;;0.40;0.40;;;;;;;7.11;94.78;96664.41;4385256;32;20199;-57
2022/11/26 07:57:31;;;;;;;2.20;0.37;;;;;;;7.14;94.49;96669.22;4373660;32;20207;-58
2022/11/26 07:59:57;;;;;;;0.80;0.80;;;;;;;7.16;94.92;96664.50;4386214;32;20217;-57
2022/11/26 08:02:22;;;;;;;0.10;0.10;;;;;;;7.23;94.15;96667.78;4390678;32;20236;-57
2022/11/26 08:04:47;;;;;;;0.20;0.20;;;;;;;7.26;93.80;96671.78;4373487;32;20190;-57
2022/11/26 08:07:12;;;;;;;0.20;0.20;;;;;;;7.17;94.06;96666.91;4368053;32;20219;-57
2022/11/26 08:09:38;;;;;;;0.30;0.30;;;;;;;7.16;93.10;96677.69;4374810;32;20193;-57
2022/11/26 08:12:03;;;;;;;0.50;0.50;;;;;;;7.13;93.62;96672.88;4370719;32;20185;-57
2022/11/26 08:14:29;;;;;;;1.03;0.70;;;;;;;6.88;94.05;96686.41;4384824;32;20180;-57
2022/11/26 08:16:54;;;;;;;0.67;0.67;;;;;;;7.06;93.98;96688.06;4380887;32;20184;-57
2022/11/26 08:19:19;;;;;;;0.47;0.47;;;;;;;7.06;93.58;96688.88;4384833;32;20188;-57
2022/11/26 08:21:45;;;;;;;0.40;0.40;;;;;;;7.09;94.17;96688.38;4384640;32;20200;-57
2022/11/26 08:24:16;;;;;;;0.43;0.43;;;;;;;7.08;94.16;96681.50;4371894;32;20271;-57
2022/11/26 08:26:42;;;;;;;0.80;0.40;;;;;;;7.12;93.56;96687.13;4376453;32;20283;-57
2022/11/26 08:29:08;;;;;;;0.10;0.10;;;;;;;7.10;93.43;96694.47;4385601;32;20326;-57
2022/11/26 08:31:34;;;;;;;0.27;0.27;;;;;;;7.15;92.74;96686.63;4391685;32;20300;-57
2022/11/26 08:34:01;;;;;;;0.57;0.57;;;;;;;7.00;93.61;96686.37;4371081;32;20442;-57
2022/11/26 08:36:28;;;;;;;0.20;0.20;;;;;;;7.10;93.32;96692.63;4385464;32;20280;-57
2022/11/26 08:38:53;;;;;;;0.47;0.47;;;;;;;7.00;94.16;96689.81;4375059;32;20318;-58
2022/11/26 08:41:19;;;;;;;0.20;0.20;;;;;;;7.04;93.52;96687.50;4380303;32;20292;-57
2022/11/26 08:43:44;;;;;;;0.60;0.60;;;;;;;6.96;93.87;96686.03;4367271;32;20190;-59
2022/11/26 08:46:10;;;;;;;0.53;0.53;;;;;;;6.86;94.48;96696.41;4367915;32;22112;-58
2022/11/26 08:48:35;;;;;;;0.53;0.53;;;;;;;7.09;93.52;96698.13;4374637;32;20230;-58
2022/11/26 08:51:07;;;;;;;0.33;0.33;;;;;;;7.06;93.77;96696.00;4379888;32;20305;-58
2022/11/26 08:53:34;;;;;;;0.57;0.53;;;;;;;6.97;94.43;96700.03;4378496;32;20223;-58
2022/11/26 08:56:00;;;;;;;0.27;0.27;;;;;;;7.03;94.49;96693.81;4379494;32;20336;-58
2022/11/26 08:58:26;;;;;;;7.97;1.77;;;;;;;7.26;94.11;96699.00;4387091;32;20284;-51
2022/11/26 09:00:51;;;;;;;1.80;0.53;;;;;;;8.00;99.90;96690.91;4385999;32;20193;-51
2022/11/26 09:03:16;;;;;;;0.60;0.60;;;;;;;10.20;100.00;96689.19;4380356;32;20185;-54
2022/11/26 09:05:42;;;;;;;0.40;0.40;;;;;;;10.84;100.00;96696.13;4383646;32;20236;-51
2022/11/26 09:08:07;;;;;;;1.13;1.07;;;;;;;11.41;91.09;96693.34;4385095;32;20200;-53
2022/11/26 09:10:32;;;;;;;0.70;0.70;;;;;;;12.05;85.55;96698.16;4378887;32;20200;-54
2022/11/26 09:12:58;;;;;;;0.87;0.63;;;;;;;12.40;80.83;96699.94;4381933;32;20188;-53
2022/11/26 09:15:23;;;;;;;0.63;0.63;;;;;;;12.71;77.54;96703.28;4366450;32;20242;-53
2022/11/26 09:17:48;;;;;;;0.47;0.47;;;;;;;12.88;75.51;96713.63;4371109;32;20185;-53
2022/11/26 09:20:14;;;;;;;0.80;0.47;;;;;;;13.10;73.70;96711.38;4377312;32;20238;-51
2022/11/26 09:22:40;;;;;;;0.63;0.63;;;;;;;12.89;72.79;96723.97;4367884;32;20203;-52
2022/11/26 09:25:05;;;;;;;0.73;0.67;;;;;;;13.17;72.69;96724.44;4374069;32;20213;-51
2022/11/26 09:27:31;;;;;;;0.73;0.67;;;;;;;13.08;71.75;96732.19;4372311;32;20173;-51
2022/11/26 09:29:56;;;;;;;1.00;0.90;;;;;;;13.11;71.37;96736.13;4369782;32;20192;-53
2022/11/26 09:32:21;;;;;;;0.90;0.73;;;;;;;13.18;70.78;96732.16;4381578;32;20196;-53
2022/11/26 09:34:47;;;;;;;0.80;0.80;;;;;;;13.37;69.89;96743.78;4381087;32;20233;-49
2022/11/26 09:37:12;;;;;;;0.30;0.30;;;;;;;13.20;69.19;96742.53;4384116;32;20215;-54
2022/11/26 09:39:37;;;;;;;2.00;1.27;;;;;;;13.31;69.46;96741.41;4379111;32;20189;-53
2022/11/26 09:42:06;;;;;;;0.73;0.73;;;;;;;13.20;68.87;96747.88;4376948;32;20196;-51
2022/11/26 09:44:57;;;;;;;0.60;0.60;;;;;;;13.21;69.45;96747.59;4379110;32;20193;-58
2022/11/26 09:47:26;;;;;;;0.70;0.70;;;;;;;12.28;69.24;96755.31;4385486;32;20215;-59
2022/11/26 09:49:58;;;;;;;1.83;0.57;;;;;;;11.12;73.71;96761.28;4391164;32;20204;-61
2022/11/26 09:52:29;;;;;;;1.20;0.50;;;;;;;9.99;78.76;96759.00;4378912;32;20208;-58
2022/11/26 09:55:02;;;;;;;0.70;0.70;;;;;;;9.74;80.85;96750.88;4380167;32;20184;-58
2022/11/26 09:57:36;;;;;;;0.53;0.53;;;;;;;9.24;83.29;96755.44;4383220;32;20192;-58
2022/11/26 10:00:03;;;;;;;1.10;0.73;;;;;;;9.17;83.92;96752.16;4379053;32;20254;-58
2022/11/26 10:02:29;;;;;;;1.03;0.83;;;;;;;8.91;86.26;96751.09;4377723;32;20219;-58
2022/11/26 10:04:54;;;;;;;3.87;0.73;;;;;;;8.77;87.80;96757.78;4382161;32;20188;-58
2022/11/26 10:08:06;;;;;;;0.90;0.90;;;;;;;8.54;87.79;96758.03;4386805;32;20193;-58
2022/11/26 10:11:08;;;;;;;0.30;0.30;;;;;;;8.46;88.50;96750.53;4332772;32;20196;-58
2022/11/26 10:13:45;;;;;;;1.23;0.77;;;;;;;8.39;88.46;96744.59;4355601;32;20219;-58
2022/11/26 10:16:40;;;;;;;0.90;0.90;;;;;;;8.14;89.44;96753.72;4363067;32;20257;-58
2022/11/26 10:19:37;;;;;;;0.87;0.87;;;;;;;8.32;89.70;96749.22;4356656;32;20212;-58
2022/11/26 10:22:25;;;;;;;0.40;0.37;;;;;;;8.31;89.98;96737.06;4366548;32;20310;-57
2022/11/26 10:24:52;;;;;;;1.23;0.60;;;;;;;8.52;89.03;96734.47;4347848;32;20360;-57
2022/11/26 10:27:19;;;;;;;1.10;0.60;;;;;;;8.67;88.53;96731.22;4369802;32;20289;-59
2022/11/26 10:30:24;;;;;;;3.10;0.93;;;;;;;8.67;88.04;96733.88;4364552;32;20302;-58
2022/11/26 10:32:50;;;;;;;2.33;0.73;;;;;;;8.87;87.83;96730.66;4370084;32;20280;-58
2022/11/26 10:35:19;;;;;;;0.77;0.70;;;;;;;8.90;87.96;96738.91;4385847;32;20196;-56
2022/11/26 10:37:46;;;;;;;0.37;0.37;;;;;;;8.69;88.62;96738.91;4363495;32;20294;-57
2022/11/26 10:40:24;;;;;;;0.50;0.50;;;;;;;8.71;87.63;96732.34;4343133;32;20419;-56
2022/11/26 10:43:18;;;;;;;0.50;0.50;;;;;;;8.63;87.59;96732.75;4366040;32;20284;-56
2022/11/26 10:45:55;;;;;;;2.27;1.00;;;;;;;8.77;87.61;96736.63;4350501;32;20193;-56
2022/11/26 10:48:32;;;;;;;0.90;0.90;;;;;;;8.80;86.87;96730.84;4348278;32;20214;-53
2022/11/26 10:51:05;;;;;;;0.50;0.50;;;;;;;8.62;87.62;96741.75;4358612;32;20225;-54
2022/11/26 10:53:55;;;;;;;5.73;1.37;;;;;;;8.84;87.28;96737.25;4378886;32;20242;-48
2022/11/26 10:56:34;;;;;;;0.77;0.77;;;;;;;11.23;100.00;96728.34;4379965;32;20322;-53
2022/11/26 10:59:03;;;;;;;0.80;0.80;;;;;;;12.85;88.30;96725.63;4356806;32;20198;-50
2022/11/26 11:01:40;;;;;;;1.37;1.10;;;;;;;13.98;78.07;96724.66;4359636;32;20188;-51
2022/11/26 11:04:31;;;;;;;4.30;1.80;;;;;;;14.26;72.15;96716.94;4346006;32;20193;-53
2022/11/26 11:06:57;;;;;;;1.13;1.13;;;;;;;14.82;68.13;96724.37;4328939;32;20218;-52
2022/11/26 11:09:31;;;;;;;1.30;0.67;;;;;;;15.35;66.47;96720.50;4370033;32;20184;-53
2022/11/26 11:12:19;;;;;;;1.63;1.53;;;;;;;15.56;66.07;96728.28;4379122;32;20216;-53
2022/11/26 11:14:45;;;;;;;1.00;1.00;;;;;;;15.34;65.04;96721.59;4362975;32;20188;-58
2022/11/26 11:17:33;;;;;;;2.27;1.60;;;;;;;14.71;61.66;96713.03;4335917;32;20224;-58
2022/11/26 11:20:17;;;;;;;0.97;0.97;;;;;;;12.80;67.31;96716.84;4377336;32;20185;-58
2022/11/26 11:22:45;;;;;;;2.20;1.57;;;;;;;11.67;71.51;96715.41;4354516;32;20281;-58
2022/11/26 11:25:26;;;;;;;0.70;0.70;;;;;;;10.84;76.29;96707.53;4391566;32;20234;-58
2022/11/26 11:28:01;;;;;;;1.07;1.07;;;;;;;10.30;78.21;96710.47;4318055;32;20201;-58
2022/11/26 11:30:36;;;;;;;1.97;1.87;;;;;;;9.90;80.27;96696.94;4350940;32;20206;-58
2022/11/26 11:33:20;;;;;;;1.83;1.73;;;;;;;9.76;80.77;96698.44;4328345;32;20201;-58
2022/11/26 11:35:57;;;;;;;2.33;2.13;;;;;;;9.48;81.71;96700.31;4352443;32;20189;-57
2022/11/26 11:38:30;;;;;;;1.53;1.43;;;;;;;9.36;83.48;96704.97;4354511;32;20192;-61
2022/11/26 11:40:56;;;;;;;1.83;1.67;;;;;;;8.85;85.17;96701.81;4355263;32;20302;-59
2022/11/26 11:43:23;;;;;;;2.33;2.13;;;;;;;8.95;85.33;96693.97;4359487;32;20221;-59
2022/11/26 11:45:54;;;;;;;2.37;2.20;;;;;;;9.03;84.68;96695.38;4346914;32;20188;-59
2022/11/26 11:48:35;;;;;;;9.17;2.47;;;;;;;9.18;84.64;96694.72;4381159;32;20195;-58
2022/11/26 11:51:32;;;;;;;1.80;1.70;;;;;;;9.02;85.93;96700.91;4353610;32;20236;-59